sensor_id;sensor_type;location;lat;lon;timestamp;P1;durP1;ratioP1;P2;durP2;ratioP2
65202;SDS011;51788;45.124;38.966;2024-02-28T00:01:11;15.20;;;4.60;;
65202;SDS011;51788;45.124;38.966;2024-02-28T00:03:37;9.77;;;4.68;;
65202;SDS011;51788;45.124;38.966;2024-02-28T00:06:03;33.40;;;4.75;;
65202;SDS011;51788;45.124;38.966;2024-02-28T00:08:29;24.90;;;5.85;;
65202;SDS011;51788;45.124;38.966;2024-02-28T00:10:55;23.63;;;4.60;;
65202;SDS011;51788;45.124;38.966;2024-02-28T00:13:21;9.38;;;4.88;;
65202;SDS011;51788;45.124;38.966;2024-02-28T00:15:48;12.50;;;4.50;;
65202;SDS011;51788;45.124;38.966;2024-02-28T00:18:14;9.38;;;4.43;;
65202;SDS011;51788;45.124;38.966;2024-02-28T00:20:40;17.73;;;4.57;;
65202;SDS011;51788;45.124;38.966;2024-02-28T00:23:06;12.50;;;3.72;;
65202;SDS011;51788;45.124;38.966;2024-02-28T00:25:32;13.65;;;4.43;;
65202;SDS011;51788;45.124;38.966;2024-02-28T00:27:58;17.85;;;3.92;;
65202;SDS011;51788;45.124;38.966;2024-02-28T00:30:24;8.93;;;3.78;;
65202;SDS011;51788;45.124;38.966;2024-02-28T00:32:50;14.30;;;3.95;;
65202;SDS011;51788;45.124;38.966;2024-02-28T00:35:16;10.18;;;4.57;;
65202;SDS011;51788;45.124;38.966;2024-02-28T00:37:42;10.57;;;4.13;;
65202;SDS011;51788;45.124;38.966;2024-02-28T00:40:08;15.30;;;5.25;;
65202;SDS011;51788;45.124;38.966;2024-02-28T00:42:34;18.92;;;5.57;;
65202;SDS011;51788;45.124;38.966;2024-02-28T00:45:00;12.50;;;3.53;;
65202;SDS011;51788;45.124;38.966;2024-02-28T00:47:26;10.32;;;4.20;;
65202;SDS011;51788;45.124;38.966;2024-02-28T00:49:52;8.80;;;3.83;;
65202;SDS011;51788;45.124;38.966;2024-02-28T00:52:18;14.70;;;3.83;;
65202;SDS011;51788;45.124;38.966;2024-02-28T00:54:44;19.13;;;4.93;;
65202;SDS011;51788;45.124;38.966;2024-02-28T00:57:10;10.25;;;3.92;;
65202;SDS011;51788;45.124;38.966;2024-02-28T00:59:36;19.88;;;5.10;;
65202;SDS011;51788;45.124;38.966;2024-02-28T01:02:02;7.50;;;3.65;;
65202;SDS011;51788;45.124;38.966;2024-02-28T01:04:28;8.95;;;4.03;;
65202;SDS011;51788;45.124;38.966;2024-02-28T01:06:55;15.07;;;4.10;;
65202;SDS011;51788;45.124;38.966;2024-02-28T01:09:21;17.35;;;4.18;;
65202;SDS011;51788;45.124;38.966;2024-02-28T01:11:47;21.90;;;4.57;;
65202;SDS011;51788;45.124;38.966;2024-02-28T01:14:13;12.85;;;3.78;;
65202;SDS011;51788;45.124;38.966;2024-02-28T01:16:39;12.15;;;4.10;;
65202;SDS011;51788;45.124;38.966;2024-02-28T01:19:05;16.42;;;4.53;;
65202;SDS011;51788;45.124;38.966;2024-02-28T01:21:31;7.07;;;4.05;;
65202;SDS011;51788;45.124;38.966;2024-02-28T01:23:57;10.48;;;3.83;;
65202;SDS011;51788;45.124;38.966;2024-02-28T01:26:23;20.83;;;5.95;;
65202;SDS011;51788;45.124;38.966;2024-02-28T01:28:49;7.85;;;4.18;;
65202;SDS011;51788;45.124;38.966;2024-02-28T01:31:15;17.08;;;3.85;;
65202;SDS011;51788;45.124;38.966;2024-02-28T01:33:41;5.25;;;3.10;;
65202;SDS011;51788;45.124;38.966;2024-02-28T01:36:07;11.57;;;4.55;;
65202;SDS011;51788;45.124;38.966;2024-02-28T01:38:33;10.82;;;6.20;;
65202;SDS011;51788;45.124;38.966;2024-02-28T01:41:00;5.28;;;3.55;;
65202;SDS011;51788;45.124;38.966;2024-02-28T01:43:26;6.65;;;3.13;;
65202;SDS011;51788;45.124;38.966;2024-02-28T01:45:52;7.28;;;4.05;;
65202;SDS011;51788;45.124;38.966;2024-02-28T01:48:18;7.13;;;4.63;;
65202;SDS011;51788;45.124;38.966;2024-02-28T01:50:44;9.05;;;4.38;;
65202;SDS011;51788;45.124;38.966;2024-02-28T01:53:11;16.80;;;4.95;;
65202;SDS011;51788;45.124;38.966;2024-02-28T01:55:39;7.75;;;3.20;;
65202;SDS011;51788;45.124;38.966;2024-02-28T01:58:05;8.65;;;3.63;;
65202;SDS011;51788;45.124;38.966;2024-02-28T02:00:32;5.25;;;3.65;;
65202;SDS011;51788;45.124;38.966;2024-02-28T02:03:00;11.43;;;4.43;;
65202;SDS011;51788;45.124;38.966;2024-02-28T02:05:26;11.15;;;4.30;;
65202;SDS011;51788;45.124;38.966;2024-02-28T02:07:52;7.20;;;3.72;;
65202;SDS011;51788;45.124;38.966;2024-02-28T02:10:20;8.52;;;4.78;;
65202;SDS011;51788;45.124;38.966;2024-02-28T02:12:46;9.65;;;4.00;;
65202;SDS011;51788;45.124;38.966;2024-02-28T02:15:12;9.27;;;3.45;;
65202;SDS011;51788;45.124;38.966;2024-02-28T02:17:38;6.97;;;4.05;;
65202;SDS011;51788;45.124;38.966;2024-02-28T02:20:04;6.30;;;4.03;;
65202;SDS011;51788;45.124;38.966;2024-02-28T02:22:35;11.13;;;4.32;;
65202;SDS011;51788;45.124;38.966;2024-02-28T02:25:05;10.77;;;4.22;;
65202;SDS011;51788;45.124;38.966;2024-02-28T02:27:31;8.18;;;4.25;;
65202;SDS011;51788;45.124;38.966;2024-02-28T02:29:57;6.07;;;3.42;;
65202;SDS011;51788;45.124;38.966;2024-02-28T02:32:23;6.20;;;3.92;;
65202;SDS011;51788;45.124;38.966;2024-02-28T02:34:49;8.77;;;4.45;;
65202;SDS011;51788;45.124;38.966;2024-02-28T02:37:15;5.80;;;4.10;;
65202;SDS011;51788;45.124;38.966;2024-02-28T02:39:41;4.70;;;4.07;;
65202;SDS011;51788;45.124;38.966;2024-02-28T02:42:07;22.52;;;4.60;;
65202;SDS011;51788;45.124;38.966;2024-02-28T02:44:33;10.00;;;4.50;;
65202;SDS011;51788;45.124;38.966;2024-02-28T02:47:00;4.65;;;3.85;;
65202;SDS011;51788;45.124;38.966;2024-02-28T02:49:26;6.32;;;3.63;;
65202;SDS011;51788;45.124;38.966;2024-02-28T02:51:51;9.45;;;4.63;;
65202;SDS011;51788;45.124;38.966;2024-02-28T02:54:17;8.45;;;4.13;;
65202;SDS011;51788;45.124;38.966;2024-02-28T02:56:43;10.80;;;4.32;;
65202;SDS011;51788;45.124;38.966;2024-02-28T02:59:10;11.35;;;4.38;;
65202;SDS011;51788;45.124;38.966;2024-02-28T03:01:37;13.73;;;4.78;;
65202;SDS011;51788;45.124;38.966;2024-02-28T03:04:03;7.35;;;3.80;;
65202;SDS011;51788;45.124;38.966;2024-02-28T03:06:29;8.73;;;5.45;;
65202;SDS011;51788;45.124;38.966;2024-02-28T03:08:55;9.50;;;4.03;;
65202;SDS011;51788;45.124;38.966;2024-02-28T03:11:21;14.23;;;3.70;;
65202;SDS011;51788;45.124;38.966;2024-02-28T03:13:47;9.00;;;4.10;;
65202;SDS011;51788;45.124;38.966;2024-02-28T03:16:13;15.27;;;5.13;;
65202;SDS011;51788;45.124;38.966;2024-02-28T03:18:39;14.25;;;4.82;;
65202;SDS011;51788;45.124;38.966;2024-02-28T03:21:05;14.60;;;5.93;;
65202;SDS011;51788;45.124;38.966;2024-02-28T03:23:31;18.70;;;5.35;;
65202;SDS011;51788;45.124;38.966;2024-02-28T03:25:58;14.00;;;5.65;;
65202;SDS011;51788;45.124;38.966;2024-02-28T03:28:24;9.75;;;4.13;;
65202;SDS011;51788;45.124;38.966;2024-02-28T03:30:50;15.30;;;6.07;;
65202;SDS011;51788;45.124;38.966;2024-02-28T03:33:16;9.15;;;4.65;;
65202;SDS011;51788;45.124;38.966;2024-02-28T03:35:42;11.77;;;4.47;;
65202;SDS011;51788;45.124;38.966;2024-02-28T03:38:08;6.72;;;4.50;;
65202;SDS011;51788;45.124;38.966;2024-02-28T03:40:34;18.20;;;5.35;;
65202;SDS011;51788;45.124;38.966;2024-02-28T03:43:00;7.30;;;4.50;;
65202;SDS011;51788;45.124;38.966;2024-02-28T03:45:27;8.65;;;4.70;;
65202;SDS011;51788;45.124;38.966;2024-02-28T03:47:54;15.18;;;4.88;;
65202;SDS011;51788;45.124;38.966;2024-02-28T03:50:20;14.13;;;5.60;;
65202;SDS011;51788;45.124;38.966;2024-02-28T03:52:46;25.42;;;6.50;;
65202;SDS011;51788;45.124;38.966;2024-02-28T03:55:12;14.25;;;5.93;;
65202;SDS011;51788;45.124;38.966;2024-02-28T03:57:38;25.95;;;5.07;;
65202;SDS011;51788;45.124;38.966;2024-02-28T04:00:04;7.43;;;4.88;;
65202;SDS011;51788;45.124;38.966;2024-02-28T04:02:37;8.73;;;4.50;;
65202;SDS011;51788;45.124;38.966;2024-02-28T04:05:03;13.32;;;5.05;;
65202;SDS011;51788;45.124;38.966;2024-02-28T04:07:29;10.75;;;5.85;;
65202;SDS011;51788;45.124;38.966;2024-02-28T04:09:55;26.23;;;6.85;;
65202;SDS011;51788;45.124;38.966;2024-02-28T04:12:21;15.85;;;6.78;;
65202;SDS011;51788;45.124;38.966;2024-02-28T04:14:47;14.20;;;5.20;;
65202;SDS011;51788;45.124;38.966;2024-02-28T04:17:13;14.30;;;4.90;;
65202;SDS011;51788;45.124;38.966;2024-02-28T04:19:39;13.80;;;7.20;;
65202;SDS011;51788;45.124;38.966;2024-02-28T04:22:05;19.70;;;6.18;;
65202;SDS011;51788;45.124;38.966;2024-02-28T04:24:31;7.85;;;5.25;;
65202;SDS011;51788;45.124;38.966;2024-02-28T04:26:58;12.05;;;6.13;;
65202;SDS011;51788;45.124;38.966;2024-02-28T04:29:25;11.73;;;5.00;;
65202;SDS011;51788;45.124;38.966;2024-02-28T04:31:51;10.95;;;4.70;;
65202;SDS011;51788;45.124;38.966;2024-02-28T04:34:17;9.55;;;5.35;;
65202;SDS011;51788;45.124;38.966;2024-02-28T04:36:43;20.20;;;5.65;;
65202;SDS011;51788;45.124;38.966;2024-02-28T04:39:09;20.55;;;7.00;;
65202;SDS011;51788;45.124;38.966;2024-02-28T04:41:35;16.08;;;6.75;;
65202;SDS011;51788;45.124;38.966;2024-02-28T04:44:01;21.25;;;6.78;;
65202;SDS011;51788;45.124;38.966;2024-02-28T04:46:27;12.00;;;6.40;;
65202;SDS011;51788;45.124;38.966;2024-02-28T04:48:53;10.32;;;6.28;;
65202;SDS011;51788;45.124;38.966;2024-02-28T04:51:18;7.53;;;4.20;;
65202;SDS011;51788;45.124;38.966;2024-02-28T04:53:44;19.63;;;5.65;;
65202;SDS011;51788;45.124;38.966;2024-02-28T04:56:10;20.75;;;6.05;;
65202;SDS011;51788;45.124;38.966;2024-02-28T04:58:36;4.68;;;4.00;;
65202;SDS011;51788;45.124;38.966;2024-02-28T05:01:03;15.27;;;4.63;;
65202;SDS011;51788;45.124;38.966;2024-02-28T05:03:29;15.43;;;5.47;;
65202;SDS011;51788;45.124;38.966;2024-02-28T05:05:55;17.27;;;5.40;;
65202;SDS011;51788;45.124;38.966;2024-02-28T05:08:21;12.93;;;5.38;;
65202;SDS011;51788;45.124;38.966;2024-02-28T05:10:47;24.88;;;5.65;;
65202;SDS011;51788;45.124;38.966;2024-02-28T05:13:15;14.65;;;4.88;;
65202;SDS011;51788;45.124;38.966;2024-02-28T05:15:41;14.98;;;5.13;;
65202;SDS011;51788;45.124;38.966;2024-02-28T05:18:07;19.08;;;5.10;;
65202;SDS011;51788;45.124;38.966;2024-02-28T05:20:33;9.40;;;4.38;;
65202;SDS011;51788;45.124;38.966;2024-02-28T05:22:59;15.68;;;5.93;;
65202;SDS011;51788;45.124;38.966;2024-02-28T05:25:25;9.35;;;4.05;;
65202;SDS011;51788;45.124;38.966;2024-02-28T05:27:51;8.25;;;5.05;;
65202;SDS011;51788;45.124;38.966;2024-02-28T05:30:17;8.93;;;4.10;;
65202;SDS011;51788;45.124;38.966;2024-02-28T05:32:43;10.70;;;5.47;;
65202;SDS011;51788;45.124;38.966;2024-02-28T05:35:09;7.22;;;5.40;;
65202;SDS011;51788;45.124;38.966;2024-02-28T05:37:36;22.52;;;7.22;;
65202;SDS011;51788;45.124;38.966;2024-02-28T05:40:03;11.48;;;5.88;;
65202;SDS011;51788;45.124;38.966;2024-02-28T05:42:29;15.75;;;7.75;;
65202;SDS011;51788;45.124;38.966;2024-02-28T05:44:56;7.85;;;5.78;;
65202;SDS011;51788;45.124;38.966;2024-02-28T05:47:22;9.70;;;5.60;;
65202;SDS011;51788;45.124;38.966;2024-02-28T05:49:48;9.18;;;4.32;;
65202;SDS011;51788;45.124;38.966;2024-02-28T05:52:15;8.55;;;6.35;;
65202;SDS011;51788;45.124;38.966;2024-02-28T05:54:41;14.68;;;6.57;;
65202;SDS011;51788;45.124;38.966;2024-02-28T05:57:08;20.60;;;5.90;;
65202;SDS011;51788;45.124;38.966;2024-02-28T05:59:34;41.38;;;7.72;;
65202;SDS011;51788;45.124;38.966;2024-02-28T06:02:00;8.80;;;5.90;;
65202;SDS011;51788;45.124;38.966;2024-02-28T06:04:26;13.02;;;6.15;;
65202;SDS011;51788;45.124;38.966;2024-02-28T06:06:52;10.57;;;4.95;;
65202;SDS011;51788;45.124;38.966;2024-02-28T06:09:18;11.25;;;5.45;;
65202;SDS011;51788;45.124;38.966;2024-02-28T06:11:44;14.82;;;5.75;;
65202;SDS011;51788;45.124;38.966;2024-02-28T06:14:10;16.10;;;5.53;;
65202;SDS011;51788;45.124;38.966;2024-02-28T06:16:36;9.40;;;3.95;;
65202;SDS011;51788;45.124;38.966;2024-02-28T06:19:02;20.42;;;6.45;;
65202;SDS011;51788;45.124;38.966;2024-02-28T06:21:28;5.93;;;3.80;;
65202;SDS011;51788;45.124;38.966;2024-02-28T06:23:54;10.63;;;6.97;;
65202;SDS011;51788;45.124;38.966;2024-02-28T06:26:21;16.27;;;6.07;;
65202;SDS011;51788;45.124;38.966;2024-02-28T06:28:47;16.50;;;6.97;;
65202;SDS011;51788;45.124;38.966;2024-02-28T06:31:14;20.05;;;5.65;;
65202;SDS011;51788;45.124;38.966;2024-02-28T06:33:41;9.02;;;5.15;;
65202;SDS011;51788;45.124;38.966;2024-02-28T06:36:08;10.40;;;5.45;;
65202;SDS011;51788;45.124;38.966;2024-02-28T06:38:34;13.10;;;6.75;;
65202;SDS011;51788;45.124;38.966;2024-02-28T06:41:03;21.25;;;7.47;;
65202;SDS011;51788;45.124;38.966;2024-02-28T06:43:32;12.32;;;5.28;;
65202;SDS011;51788;45.124;38.966;2024-02-28T06:45:59;10.32;;;5.65;;
65202;SDS011;51788;45.124;38.966;2024-02-28T06:48:24;15.32;;;6.75;;
65202;SDS011;51788;45.124;38.966;2024-02-28T06:50:50;21.00;;;7.07;;
65202;SDS011;51788;45.124;38.966;2024-02-28T06:53:16;13.50;;;6.85;;
65202;SDS011;51788;45.124;38.966;2024-02-28T06:55:42;20.40;;;6.05;;
65202;SDS011;51788;45.124;38.966;2024-02-28T06:58:10;29.65;;;12.68;;
65202;SDS011;51788;45.124;38.966;2024-02-28T07:00:37;19.75;;;10.65;;
65202;SDS011;51788;45.124;38.966;2024-02-28T07:03:03;14.45;;;7.35;;
65202;SDS011;51788;45.124;38.966;2024-02-28T07:05:29;37.72;;;14.68;;
65202;SDS011;51788;45.124;38.966;2024-02-28T07:07:55;11.95;;;6.50;;
65202;SDS011;51788;45.124;38.966;2024-02-28T07:10:21;6.38;;;5.38;;
65202;SDS011;51788;45.124;38.966;2024-02-28T07:12:48;19.92;;;7.82;;
65202;SDS011;51788;45.124;38.966;2024-02-28T07:15:14;25.52;;;13.48;;
65202;SDS011;51788;45.124;38.966;2024-02-28T07:17:44;7.45;;;6.18;;
65202;SDS011;51788;45.124;38.966;2024-02-28T07:20:10;11.98;;;7.68;;
65202;SDS011;51788;45.124;38.966;2024-02-28T07:22:37;17.50;;;8.73;;
65202;SDS011;51788;45.124;38.966;2024-02-28T07:25:04;23.42;;;6.97;;
65202;SDS011;51788;45.124;38.966;2024-02-28T07:27:30;14.77;;;7.13;;
65202;SDS011;51788;45.124;38.966;2024-02-28T07:29:56;9.05;;;7.05;;
65202;SDS011;51788;45.124;38.966;2024-02-28T07:32:22;11.23;;;8.60;;
65202;SDS011;51788;45.124;38.966;2024-02-28T07:34:48;26.02;;;8.00;;
65202;SDS011;51788;45.124;38.966;2024-02-28T07:37:14;18.02;;;6.95;;
65202;SDS011;51788;45.124;38.966;2024-02-28T07:39:40;18.52;;;8.75;;
65202;SDS011;51788;45.124;38.966;2024-02-28T07:42:06;9.68;;;6.07;;
65202;SDS011;51788;45.124;38.966;2024-02-28T07:44:32;25.60;;;8.88;;
65202;SDS011;51788;45.124;38.966;2024-02-28T07:46:58;16.80;;;8.35;;
65202;SDS011;51788;45.124;38.966;2024-02-28T07:49:24;14.63;;;6.45;;
65202;SDS011;51788;45.124;38.966;2024-02-28T07:51:51;14.40;;;7.50;;
65202;SDS011;51788;45.124;38.966;2024-02-28T07:54:17;14.52;;;6.63;;
65202;SDS011;51788;45.124;38.966;2024-02-28T07:56:43;10.35;;;7.63;;
65202;SDS011;51788;45.124;38.966;2024-02-28T07:59:09;13.38;;;5.70;;
65202;SDS011;51788;45.124;38.966;2024-02-28T08:01:35;16.45;;;7.15;;
65202;SDS011;51788;45.124;38.966;2024-02-28T08:04:05;7.53;;;5.97;;
65202;SDS011;51788;45.124;38.966;2024-02-28T08:06:31;6.68;;;5.78;;
65202;SDS011;51788;45.124;38.966;2024-02-28T08:08:58;23.13;;;7.63;;
65202;SDS011;51788;45.124;38.966;2024-02-28T08:11:24;24.30;;;8.90;;
65202;SDS011;51788;45.124;38.966;2024-02-28T08:13:51;16.63;;;7.57;;
65202;SDS011;51788;45.124;38.966;2024-02-28T08:16:17;19.33;;;7.15;;
65202;SDS011;51788;45.124;38.966;2024-02-28T08:18:43;8.27;;;5.50;;
65202;SDS011;51788;45.124;38.966;2024-02-28T08:21:09;10.40;;;8.15;;
65202;SDS011;51788;45.124;38.966;2024-02-28T08:23:35;27.52;;;6.53;;
65202;SDS011;51788;45.124;38.966;2024-02-28T08:26:01;14.52;;;6.80;;
65202;SDS011;51788;45.124;38.966;2024-02-28T08:28:29;14.50;;;8.18;;
65202;SDS011;51788;45.124;38.966;2024-02-28T08:30:55;13.20;;;6.13;;
65202;SDS011;51788;45.124;38.966;2024-02-28T08:33:21;22.70;;;8.07;;
65202;SDS011;51788;45.124;38.966;2024-02-28T08:35:47;9.75;;;6.72;;
65202;SDS011;51788;45.124;38.966;2024-02-28T08:38:15;18.38;;;7.93;;
65202;SDS011;51788;45.124;38.966;2024-02-28T08:40:41;14.85;;;8.23;;
65202;SDS011;51788;45.124;38.966;2024-02-28T08:43:07;14.48;;;7.88;;
65202;SDS011;51788;45.124;38.966;2024-02-28T08:45:34;13.20;;;7.43;;
65202;SDS011;51788;45.124;38.966;2024-02-28T08:48:00;47.20;;;8.32;;
65202;SDS011;51788;45.124;38.966;2024-02-28T08:50:27;13.05;;;8.32;;
65202;SDS011;51788;45.124;38.966;2024-02-28T08:52:54;13.32;;;8.32;;
65202;SDS011;51788;45.124;38.966;2024-02-28T08:55:20;12.10;;;7.63;;
65202;SDS011;51788;45.124;38.966;2024-02-28T08:57:48;14.30;;;8.57;;
65202;SDS011;51788;45.124;38.966;2024-02-28T09:00:14;13.27;;;8.55;;
65202;SDS011;51788;45.124;38.966;2024-02-28T09:02:41;23.73;;;8.20;;
65202;SDS011;51788;45.124;38.966;2024-02-28T09:05:07;8.80;;;5.72;;
65202;SDS011;51788;45.124;38.966;2024-02-28T09:07:34;18.45;;;9.18;;
65202;SDS011;51788;45.124;38.966;2024-02-28T09:10:04;19.00;;;8.82;;
65202;SDS011;51788;45.124;38.966;2024-02-28T09:12:33;16.75;;;8.25;;
65202;SDS011;51788;45.124;38.966;2024-02-28T09:14:59;17.45;;;7.80;;
65202;SDS011;51788;45.124;38.966;2024-02-28T09:17:25;11.88;;;6.38;;
65202;SDS011;51788;45.124;38.966;2024-02-28T09:19:52;12.57;;;8.70;;
65202;SDS011;51788;45.124;38.966;2024-02-28T09:22:19;14.85;;;8.25;;
65202;SDS011;51788;45.124;38.966;2024-02-28T09:24:46;15.38;;;9.23;;
65202;SDS011;51788;45.124;38.966;2024-02-28T09:27:13;21.25;;;8.88;;
65202;SDS011;51788;45.124;38.966;2024-02-28T09:29:39;28.08;;;7.57;;
65202;SDS011;51788;45.124;38.966;2024-02-28T09:32:05;15.38;;;9.52;;
65202;SDS011;51788;45.124;38.966;2024-02-28T09:34:32;11.60;;;8.55;;
65202;SDS011;51788;45.124;38.966;2024-02-28T09:36:57;18.77;;;8.43;;
65202;SDS011;51788;45.124;38.966;2024-02-28T09:39:23;17.73;;;9.32;;
65202;SDS011;51788;45.124;38.966;2024-02-28T09:41:50;14.50;;;8.60;;
65202;SDS011;51788;45.124;38.966;2024-02-28T09:44:16;10.32;;;7.35;;
65202;SDS011;51788;45.124;38.966;2024-02-28T09:46:43;20.27;;;8.48;;
65202;SDS011;51788;45.124;38.966;2024-02-28T09:49:09;18.38;;;9.13;;
65202;SDS011;51788;45.124;38.966;2024-02-28T09:51:36;22.15;;;9.65;;
65202;SDS011;51788;45.124;38.966;2024-02-28T09:54:03;20.30;;;10.05;;
65202;SDS011;51788;45.124;38.966;2024-02-28T09:56:30;14.35;;;9.38;;
65202;SDS011;51788;45.124;38.966;2024-02-28T09:58:57;18.60;;;9.95;;
65202;SDS011;51788;45.124;38.966;2024-02-28T10:01:25;20.55;;;7.68;;
65202;SDS011;51788;45.124;38.966;2024-02-28T10:03:52;12.30;;;7.28;;
65202;SDS011;51788;45.124;38.966;2024-02-28T10:06:19;14.52;;;9.50;;
65202;SDS011;51788;45.124;38.966;2024-02-28T10:08:45;19.60;;;9.98;;
65202;SDS011;51788;45.124;38.966;2024-02-28T10:11:17;14.13;;;10.00;;
65202;SDS011;51788;45.124;38.966;2024-02-28T10:13:44;24.27;;;8.70;;
65202;SDS011;51788;45.124;38.966;2024-02-28T10:16:10;10.30;;;8.15;;
65202;SDS011;51788;45.124;38.966;2024-02-28T10:18:36;21.50;;;9.25;;
65202;SDS011;51788;45.124;38.966;2024-02-28T10:21:02;12.40;;;7.38;;
65202;SDS011;51788;45.124;38.966;2024-02-28T10:23:29;12.43;;;8.00;;
65202;SDS011;51788;45.124;38.966;2024-02-28T10:25:55;14.23;;;7.45;;
65202;SDS011;51788;45.124;38.966;2024-02-28T10:28:21;20.95;;;8.98;;
65202;SDS011;51788;45.124;38.966;2024-02-28T10:30:47;12.88;;;7.95;;
65202;SDS011;51788;45.124;38.966;2024-02-28T10:33:13;14.35;;;9.00;;
65202;SDS011;51788;45.124;38.966;2024-02-28T10:35:40;15.75;;;8.07;;
65202;SDS011;51788;45.124;38.966;2024-02-28T10:38:10;16.50;;;8.07;;
65202;SDS011;51788;45.124;38.966;2024-02-28T10:40:40;38.95;;;18.40;;
65202;SDS011;51788;45.124;38.966;2024-02-28T10:43:09;16.63;;;9.82;;
65202;SDS011;51788;45.124;38.966;2024-02-28T10:45:36;22.67;;;11.55;;
65202;SDS011;51788;45.124;38.966;2024-02-28T10:48:06;19.05;;;9.82;;
65202;SDS011;51788;45.124;38.966;2024-02-28T10:50:33;22.25;;;12.73;;
65202;SDS011;51788;45.124;38.966;2024-02-28T10:53:00;18.30;;;10.27;;
65202;SDS011;51788;45.124;38.966;2024-02-28T10:55:34;12.40;;;7.78;;
65202;SDS011;51788;45.124;38.966;2024-02-28T10:58:08;139.85;;;21.67;;
65202;SDS011;51788;45.124;38.966;2024-02-28T11:00:36;12.23;;;10.27;;
65202;SDS011;51788;45.124;38.966;2024-02-28T11:03:10;12.70;;;8.70;;
65202;SDS011;51788;45.124;38.966;2024-02-28T11:05:38;26.83;;;14.02;;
65202;SDS011;51788;45.124;38.966;2024-02-28T11:08:09;25.40;;;9.10;;
65202;SDS011;51788;45.124;38.966;2024-02-28T11:10:43;19.50;;;14.07;;
65202;SDS011;51788;45.124;38.966;2024-02-28T11:13:20;13.43;;;8.13;;
65202;SDS011;51788;45.124;38.966;2024-02-28T11:15:50;21.92;;;10.15;;
65202;SDS011;51788;45.124;38.966;2024-02-28T11:18:16;25.35;;;8.63;;
65202;SDS011;51788;45.124;38.966;2024-02-28T11:20:43;26.45;;;8.40;;
65202;SDS011;51788;45.124;38.966;2024-02-28T11:23:10;23.58;;;8.55;;
65202;SDS011;51788;45.124;38.966;2024-02-28T11:25:36;19.17;;;8.40;;
65202;SDS011;51788;45.124;38.966;2024-02-28T11:28:02;16.23;;;8.38;;
65202;SDS011;51788;45.124;38.966;2024-02-28T11:30:29;11.82;;;8.25;;
65202;SDS011;51788;45.124;38.966;2024-02-28T11:32:55;16.58;;;11.85;;
65202;SDS011;51788;45.124;38.966;2024-02-28T11:35:23;16.75;;;8.85;;
65202;SDS011;51788;45.124;38.966;2024-02-28T11:37:50;46.88;;;11.73;;
65202;SDS011;51788;45.124;38.966;2024-02-28T11:40:19;11.63;;;7.82;;
65202;SDS011;51788;45.124;38.966;2024-02-28T11:42:45;12.02;;;7.57;;
65202;SDS011;51788;45.124;38.966;2024-02-28T11:45:11;18.73;;;8.32;;
65202;SDS011;51788;45.124;38.966;2024-02-28T11:47:37;25.50;;;7.80;;
65202;SDS011;51788;45.124;38.966;2024-02-28T11:50:03;23.75;;;9.18;;
65202;SDS011;51788;45.124;38.966;2024-02-28T11:52:30;11.82;;;7.40;;
65202;SDS011;51788;45.124;38.966;2024-02-28T11:54:56;37.28;;;11.15;;
65202;SDS011;51788;45.124;38.966;2024-02-28T11:57:22;25.77;;;9.25;;
65202;SDS011;51788;45.124;38.966;2024-02-28T11:59:48;32.00;;;9.45;;
65202;SDS011;51788;45.124;38.966;2024-02-28T12:02:17;12.90;;;8.00;;
65202;SDS011;51788;45.124;38.966;2024-02-28T12:04:46;16.17;;;8.35;;
65202;SDS011;51788;45.124;38.966;2024-02-28T12:07:15;15.07;;;8.20;;
65202;SDS011;51788;45.124;38.966;2024-02-28T12:09:41;15.25;;;8.73;;
65202;SDS011;51788;45.124;38.966;2024-02-28T12:12:09;23.77;;;7.63;;
65202;SDS011;51788;45.124;38.966;2024-02-28T12:14:37;21.55;;;8.75;;
65202;SDS011;51788;45.124;38.966;2024-02-28T12:17:08;16.95;;;8.77;;
65202;SDS011;51788;45.124;38.966;2024-02-28T12:19:35;26.15;;;8.95;;
65202;SDS011;51788;45.124;38.966;2024-02-28T12:22:01;17.35;;;9.35;;
65202;SDS011;51788;45.124;38.966;2024-02-28T12:24:27;19.50;;;7.57;;
65202;SDS011;51788;45.124;38.966;2024-02-28T12:26:53;27.15;;;8.75;;
65202;SDS011;51788;45.124;38.966;2024-02-28T12:29:19;22.63;;;8.18;;
65202;SDS011;51788;45.124;38.966;2024-02-28T12:31:44;20.80;;;7.68;;
65202;SDS011;51788;45.124;38.966;2024-02-28T12:34:10;20.63;;;7.38;;
65202;SDS011;51788;45.124;38.966;2024-02-28T12:36:36;22.98;;;7.38;;
65202;SDS011;51788;45.124;38.966;2024-02-28T12:39:02;17.33;;;7.63;;
65202;SDS011;51788;45.124;38.966;2024-02-28T12:41:31;26.67;;;6.50;;
65202;SDS011;51788;45.124;38.966;2024-02-28T12:43:57;14.85;;;6.45;;
65202;SDS011;51788;45.124;38.966;2024-02-28T12:46:23;9.57;;;5.72;;
65202;SDS011;51788;45.124;38.966;2024-02-28T12:48:49;33.22;;;6.68;;
65202;SDS011;51788;45.124;38.966;2024-02-28T12:51:35;12.25;;;6.50;;
65202;SDS011;51788;45.124;38.966;2024-02-28T12:54:09;8.05;;;6.57;;
65202;SDS011;51788;45.124;38.966;2024-02-28T12:56:35;17.55;;;6.25;;
65202;SDS011;51788;45.124;38.966;2024-02-28T12:59:02;17.15;;;7.82;;
65202;SDS011;51788;45.124;38.966;2024-02-28T13:01:29;43.10;;;9.80;;
65202;SDS011;51788;45.124;38.966;2024-02-28T13:03:56;18.02;;;8.00;;
65202;SDS011;51788;45.124;38.966;2024-02-28T13:06:22;19.73;;;8.20;;
65202;SDS011;51788;45.124;38.966;2024-02-28T13:08:48;33.92;;;9.75;;
65202;SDS011;51788;45.124;38.966;2024-02-28T13:11:17;9.50;;;6.68;;
65202;SDS011;51788;45.124;38.966;2024-02-28T13:13:46;8.38;;;7.50;;
65202;SDS011;51788;45.124;38.966;2024-02-28T13:16:13;21.00;;;9.35;;
65202;SDS011;51788;45.124;38.966;2024-02-28T13:18:39;9.20;;;7.43;;
65202;SDS011;51788;45.124;38.966;2024-02-28T13:21:05;14.07;;;7.68;;
65202;SDS011;51788;45.124;38.966;2024-02-28T13:23:31;29.27;;;8.18;;
65202;SDS011;51788;45.124;38.966;2024-02-28T13:25:57;17.55;;;7.43;;
65202;SDS011;51788;45.124;38.966;2024-02-28T13:28:23;21.33;;;7.93;;
65202;SDS011;51788;45.124;38.966;2024-02-28T13:30:56;24.90;;;7.97;;
65202;SDS011;51788;45.124;38.966;2024-02-28T13:33:25;14.05;;;6.28;;
65202;SDS011;51788;45.124;38.966;2024-02-28T13:35:52;23.77;;;8.02;;
65202;SDS011;51788;45.124;38.966;2024-02-28T13:38:19;24.23;;;7.28;;
65202;SDS011;51788;45.124;38.966;2024-02-28T13:40:46;12.82;;;6.68;;
65202;SDS011;51788;45.124;38.966;2024-02-28T13:43:13;42.05;;;9.13;;
65202;SDS011;51788;45.124;38.966;2024-02-28T13:45:39;27.60;;;6.72;;
65202;SDS011;51788;45.124;38.966;2024-02-28T13:48:15;30.45;;;7.90;;
65202;SDS011;51788;45.124;38.966;2024-02-28T13:50:49;12.70;;;6.90;;
65202;SDS011;51788;45.124;38.966;2024-02-28T13:53:15;15.65;;;6.35;;
65202;SDS011;51788;45.124;38.966;2024-02-28T13:55:42;23.05;;;7.03;;
65202;SDS011;51788;45.124;38.966;2024-02-28T13:58:08;18.30;;;7.97;;
65202;SDS011;51788;45.124;38.966;2024-02-28T14:00:36;36.95;;;8.48;;
65202;SDS011;51788;45.124;38.966;2024-02-28T14:03:03;16.30;;;7.47;;
65202;SDS011;51788;45.124;38.966;2024-02-28T14:05:29;35.53;;;9.13;;
65202;SDS011;51788;45.124;38.966;2024-02-28T14:07:56;22.90;;;7.45;;
65202;SDS011;51788;45.124;38.966;2024-02-28T14:10:24;43.20;;;7.82;;
65202;SDS011;51788;45.124;38.966;2024-02-28T14:12:51;18.80;;;7.85;;
65202;SDS011;51788;45.124;38.966;2024-02-28T14:15:19;9.07;;;7.47;;
65202;SDS011;51788;45.124;38.966;2024-02-28T14:17:46;35.92;;;9.70;;
65202;SDS011;51788;45.124;38.966;2024-02-28T14:20:12;15.32;;;8.32;;